createdAt,value
2022-10-17T00:00:15.995Z,14.68
2022-10-17T00:01:19.766Z,14.65
2022-10-17T00:02:23.871Z,14.66
2022-10-17T00:03:27.639Z,14.65
2022-10-17T00:04:31.498Z,14.65
2022-10-17T00:05:41.316Z,14.63
2022-10-17T00:06:45.036Z,14.61
2022-10-17T00:07:48.707Z,14.61
2022-10-17T00:08:52.322Z,14.61
2022-10-17T00:09:55.946Z,14.61
2022-10-17T00:11:07.929Z,14.59
2022-10-17T00:12:12.439Z,14.57
2022-10-17T00:13:16.086Z,14.55
2022-10-17T00:14:19.753Z,14.53
2022-10-17T00:15:23.979Z,14.52
2022-10-17T00:16:37.187Z,14.49
2022-10-17T00:17:42.063Z,14.47
2022-10-17T00:18:45.761Z,14.46
2022-10-17T00:19:49.469Z,14.44
2022-10-17T00:20:53.583Z,14.39
2022-10-17T00:21:57.211Z,14.33
2022-10-17T00:23:00.988Z,14.34
2022-10-17T00:24:05.052Z,14.36
2022-10-17T00:25:09.567Z,14.37
2022-10-17T00:26:13.410Z,14.35
2022-10-17T00:27:17.183Z,14.34
2022-10-17T00:28:20.815Z,14.33
2022-10-17T00:29:24.458Z,14.34
2022-10-17T00:30:28.088Z,14.34
2022-10-17T00:31:31.711Z,14.33
2022-10-17T00:32:35.365Z,14.33
2022-10-17T00:33:39.453Z,14.33
2022-10-17T00:34:46.687Z,14.34
2022-10-17T00:35:50.300Z,14.36
2022-10-17T00:36:54.020Z,14.35
2022-10-17T00:37:57.715Z,14.34
2022-10-17T00:39:01.400Z,14.34
2022-10-17T00:40:07.711Z,14.33
2022-10-17T00:41:16.826Z,14.33
2022-10-17T00:42:41.078Z,14.32
2022-10-17T00:44:01.666Z,14.31
2022-10-17T00:45:32.165Z,14.28
2022-10-17T00:46:39.716Z,14.28
2022-10-17T00:47:48.708Z,14.26
2022-10-17T00:48:55.612Z,14.26
2022-10-17T00:50:05.361Z,14.25
2022-10-17T00:51:09.595Z,14.22
2022-10-17T00:52:20.740Z,14.22
2022-10-17T00:53:24.608Z,14.23
2022-10-17T00:54:35.073Z,14.22
2022-10-17T00:56:05.535Z,14.21
2022-10-17T00:57:09.953Z,14.20
2022-10-17T00:58:13.694Z,14.21
2022-10-17T00:59:22.032Z,14.19
2022-10-17T01:00:25.814Z,14.20
2022-10-17T01:01:29.816Z,14.20
2022-10-17T01:02:33.588Z,14.17
2022-10-17T01:03:37.491Z,14.17
2022-10-17T01:04:45.250Z,14.17
2022-10-17T01:05:48.869Z,14.14
2022-10-17T01:06:52.529Z,14.14
2022-10-17T01:07:56.700Z,14.15
2022-10-17T01:09:00.418Z,14.14
2022-10-17T01:10:06.575Z,14.13
2022-10-17T01:11:57.685Z,14.13
2022-10-17T01:13:23.708Z,14.07
2022-10-17T01:14:49.275Z,14.08
2022-10-17T01:16:34.370Z,14.01
2022-10-17T01:17:59.711Z,14.03
2022-10-17T01:19:43.992Z,14.03
2022-10-17T01:21:25.296Z,14.01
2022-10-17T01:23:11.242Z,13.98
2022-10-17T01:24:58.945Z,13.96
2022-10-17T01:26:37.771Z,13.94
2022-10-17T01:27:49.709Z,13.93
2022-10-17T01:29:59.500Z,13.93
2022-10-17T01:31:22.415Z,13.94
2022-10-17T01:32:44.279Z,13.91
2022-10-17T01:34:21.426Z,13.91
2022-10-17T01:35:44.237Z,13.92
2022-10-17T01:37:14.857Z,13.92
2022-10-17T01:38:32.613Z,13.93
2022-10-17T01:40:00.306Z,13.92
2022-10-17T01:41:17.575Z,13.94
2022-10-17T01:42:42.773Z,13.94
2022-10-17T01:44:03.567Z,13.96
2022-10-17T01:45:28.001Z,13.97
2022-10-17T01:46:45.271Z,13.95
2022-10-17T01:47:53.536Z,13.95
2022-10-17T01:49:02.894Z,13.96
2022-10-17T01:50:18.964Z,13.98
2022-10-17T01:51:33.159Z,13.97
2022-10-17T01:52:55.941Z,13.98
2022-10-17T01:54:47.804Z,13.98
2022-10-17T01:57:21.558Z,13.99
2022-10-17T01:58:46.680Z,13.97
2022-10-17T01:59:55.263Z,13.98
2022-10-17T09:01:17.117Z,32.28
2022-10-17T09:03:34.432Z,32.23
2022-10-17T09:06:10.803Z,32.10
2022-10-17T09:29:17.942Z,28.20
2022-10-17T09:31:55.229Z,27.77
2022-10-17T10:53:57.445Z,23.54
2022-10-17T10:55:55.847Z,23.53
2022-10-17T10:57:04.303Z,23.56
2022-10-17T10:58:57.873Z,23.61
2022-10-17T11:00:38.106Z,23.63
2022-10-17T11:02:14.377Z,23.66
2022-10-17T11:04:16.673Z,23.66
2022-10-17T11:06:03.336Z,23.65
2022-10-17T11:07:47.792Z,23.62
2022-10-17T11:09:33.785Z,23.63
2022-10-17T11:11:39.324Z,23.64
2022-10-17T11:13:04.443Z,23.67
2022-10-17T11:14:18.652Z,23.66
2022-10-17T11:15:44.869Z,23.64
2022-10-17T11:17:23.485Z,23.61
2022-10-17T11:18:50.882Z,23.65
2022-10-17T11:20:08.729Z,23.69
2022-10-17T11:21:57.131Z,23.71
2022-10-17T11:23:21.537Z,23.74
2022-10-17T11:24:35.909Z,23.73
2022-10-17T11:25:42.157Z,23.75
2022-10-17T11:26:59.160Z,23.71
2022-10-17T11:28:18.065Z,23.71
2022-10-17T11:29:29.620Z,23.74
2022-10-17T11:30:56.954Z,23.78
2022-10-17T11:32:26.767Z,23.79
2022-10-17T11:34:00.284Z,23.79
2022-10-17T11:35:36.809Z,23.85
2022-10-17T11:36:47.078Z,23.90
2022-10-17T11:38:19.601Z,23.92
2022-10-17T11:39:56.654Z,23.96
2022-10-17T11:41:00.739Z,23.98
2022-10-17T11:42:19.001Z,24.00
2022-10-17T11:43:46.528Z,24.04
2022-10-17T11:44:57.753Z,24.06
2022-10-17T11:46:27.373Z,24.08
2022-10-17T11:47:36.301Z,24.11
2022-10-17T11:49:03.778Z,24.11
2022-10-17T11:52:44.469Z,24.02
2022-10-17T11:54:15.068Z,24.04
2022-10-17T11:55:32.889Z,24.07
2022-10-17T11:57:18.575Z,24.11
2022-10-17T11:59:07.929Z,24.13
2022-10-17T12:00:54.462Z,24.13
2022-10-17T12:02:17.469Z,24.15
2022-10-17T12:04:13.221Z,24.18
2022-10-17T12:05:37.575Z,24.18
2022-10-17T12:07:20.924Z,24.21
2022-10-17T12:08:56.869Z,24.24
2022-10-17T12:10:23.606Z,24.23
2022-10-17T12:11:58.114Z,24.20
2022-10-17T12:13:30.158Z,24.25
2022-10-17T12:14:50.629Z,24.27
2022-10-17T12:15:58.891Z,24.27
2022-10-17T12:17:05.235Z,24.30
2022-10-17T12:18:17.790Z,24.34
2022-10-17T12:19:25.897Z,24.39
2022-10-17T12:20:38.024Z,24.43
2022-10-17T12:22:12.988Z,24.43
2022-10-17T12:23:16.459Z,24.43
2022-10-17T12:24:30.780Z,24.45
2022-10-17T12:26:48.716Z,24.53
2022-10-17T12:28:03.367Z,24.53
2022-10-17T12:29:30.219Z,24.57
2022-10-17T12:30:36.644Z,24.61
2022-10-17T12:31:40.944Z,24.66
2022-10-17T12:33:32.929Z,24.66
2022-10-17T12:34:38.425Z,24.65
2022-10-17T12:35:42.314Z,24.71
2022-10-17T12:36:46.366Z,24.75
2022-10-17T12:37:49.907Z,24.75
2022-10-17T12:39:03.380Z,24.78
2022-10-17T12:40:36.027Z,24.78
2022-10-17T12:41:40.151Z,24.83
2022-10-17T12:42:50.566Z,24.83
2022-10-17T12:43:55.688Z,24.86
2022-10-17T12:45:23.785Z,24.82
2022-10-17T12:46:51.242Z,24.88
2022-10-17T12:47:54.803Z,24.92
2022-10-17T12:49:05.118Z,24.96
2022-10-17T12:51:34.057Z,24.99
2022-10-17T12:52:32.832Z,24.99
2022-10-17T12:54:24.230Z,25.02
2022-10-17T12:55:29.659Z,25.03
2022-10-17T12:56:42.062Z,25.05
2022-10-17T12:58:05.206Z,25.08
2022-10-17T12:59:29.655Z,25.09
2022-10-17T13:01:22.540Z,25.09
2022-10-17T13:02:28.589Z,25.11
2022-10-17T13:03:42.896Z,25.15
2022-10-17T13:04:49.594Z,25.19
2022-10-17T13:05:59.090Z,25.21
2022-10-17T13:07:21.591Z,25.25
2022-10-17T13:08:39.327Z,25.25
2022-10-17T13:09:45.554Z,25.29
2022-10-17T13:10:52.819Z,25.26
2022-10-17T13:12:02.093Z,25.30
2022-10-17T13:13:22.479Z,25.30
2022-10-17T13:14:28.688Z,25.29
2022-10-17T13:15:36.448Z,25.28
2022-10-17T13:16:59.205Z,25.32
2022-10-17T13:18:03.197Z,25.35
2022-10-17T13:19:20.519Z,25.38
2022-10-17T13:20:31.343Z,25.36
2022-10-17T13:21:35.737Z,25.34
2022-10-17T13:22:46.185Z,25.34
2022-10-17T13:23:55.168Z,25.35
2022-10-17T13:25:20.135Z,25.37
2022-10-17T13:26:28.547Z,25.37
2022-10-17T13:27:35.942Z,25.39
2022-10-17T13:28:40.406Z,25.36
2022-10-17T13:29:47.927Z,25.32
2022-10-17T13:30:53.661Z,25.33
2022-10-17T13:32:04.570Z,25.34
2022-10-17T13:33:45.137Z,25.35
2022-10-17T13:35:22.057Z,25.38
2022-10-17T13:36:30.608Z,25.43
2022-10-17T13:37:36.125Z,25.45
2022-10-17T13:38:41.957Z,25.44
2022-10-17T13:40:00.261Z,25.46
2022-10-17T13:41:34.979Z,25.45
2022-10-17T13:42:41.759Z,25.42
2022-10-17T13:43:45.614Z,25.39
2022-10-17T13:44:56.080Z,25.41
2022-10-17T13:46:32.390Z,25.36
2022-10-17T13:47:54.043Z,25.33
2022-10-17T13:49:09.095Z,25.32
2022-10-17T13:50:44.954Z,25.31
2022-10-17T13:51:57.993Z,25.34
2022-10-17T13:53:19.897Z,25.37
2022-10-17T13:54:42.818Z,25.37
2022-10-17T13:56:35.493Z,25.37
2022-10-17T14:00:27.471Z,25.43
2022-10-17T14:01:42.409Z,25.42
2022-10-17T14:03:14.421Z,25.40
2022-10-17T14:04:26.824Z,25.39
2022-10-17T14:05:34.152Z,25.41
2022-10-17T14:06:52.259Z,25.39
2022-10-17T14:08:11.934Z,25.41
2022-10-17T14:09:31.064Z,25.41
2022-10-17T14:10:39.654Z,25.44
2022-10-17T14:12:06.476Z,25.42
2022-10-17T14:13:36.082Z,25.40
2022-10-17T14:15:09.759Z,25.40
2022-10-17T14:16:16.251Z,25.36
2022-10-17T14:17:31.010Z,25.40
2022-10-17T14:18:45.993Z,25.42
2022-10-17T14:21:40.920Z,25.44
2022-10-17T14:23:04.509Z,25.41
2022-10-17T14:24:38.988Z,25.39
2022-10-17T14:25:45.924Z,25.40
2022-10-17T14:26:58.665Z,25.37
2022-10-17T14:28:17.355Z,25.39
2022-10-17T14:29:29.086Z,25.35
2022-10-17T14:32:11.022Z,25.34
2022-10-17T14:33:36.342Z,25.36
2022-10-17T14:34:43.121Z,25.35
2022-10-17T14:36:02.087Z,25.34
2022-10-17T14:37:47.628Z,25.33
2022-10-17T14:38:53.153Z,25.33
2022-10-17T14:40:23.689Z,25.32
2022-10-17T14:41:44.147Z,25.30
2022-10-17T14:42:51.148Z,25.29
2022-10-17T14:45:41.329Z,25.28
2022-10-17T14:46:53.038Z,25.25
2022-10-17T14:48:55.342Z,25.22
2022-10-17T14:50:37.874Z,25.19
2022-10-17T14:52:17.664Z,25.15
2022-10-17T14:53:49.771Z,25.16
2022-10-17T14:55:25.569Z,25.15
2022-10-17T14:56:51.332Z,25.14
2022-10-17T14:57:59.547Z,25.11
2022-10-17T14:59:13.797Z,25.12
2022-10-17T15:00:26.549Z,25.09
2022-10-17T15:01:35.763Z,25.08
2022-10-17T15:04:11.009Z,25.03
2022-10-17T15:05:17.202Z,25.01
2022-10-17T15:06:32.647Z,24.98
2022-10-17T15:07:40.598Z,24.97
2022-10-17T15:08:45.600Z,24.95
2022-10-17T15:10:04.101Z,24.92
2022-10-17T15:11:30.672Z,24.90
2022-10-17T15:12:58.863Z,24.85
2022-10-17T15:14:19.677Z,24.80
2022-10-17T15:15:25.900Z,24.80
2022-10-17T15:16:43.454Z,24.77
2022-10-17T15:17:50.877Z,24.74
2022-10-17T15:19:28.380Z,24.71
2022-10-17T15:20:38.921Z,24.68
2022-10-17T15:21:47.205Z,24.66
2022-10-17T15:22:51.882Z,24.62
2022-10-17T15:23:58.589Z,24.59
2022-10-17T15:25:06.904Z,24.57
2022-10-17T15:26:33.081Z,24.54
2022-10-17T15:27:40.808Z,24.50
2022-10-17T15:28:49.813Z,24.46
2022-10-17T15:29:53.599Z,24.44
2022-10-17T15:31:06.894Z,24.40
2022-10-17T15:32:14.933Z,24.37
2022-10-17T15:33:18.410Z,24.33
2022-10-17T15:34:22.251Z,24.30
2022-10-17T15:35:31.047Z,24.27
2022-10-17T15:36:41.280Z,24.22
2022-10-17T15:37:46.981Z,24.18
2022-10-17T15:38:53.716Z,24.14
2022-10-17T15:39:57.487Z,24.11
2022-10-17T15:41:01.340Z,24.07
2022-10-17T15:42:12.461Z,24.02
2022-10-17T15:43:19.756Z,23.97
2022-10-17T15:44:23.625Z,23.90
2022-10-17T15:45:27.678Z,23.84
2022-10-17T15:46:36.502Z,23.81
2022-10-17T15:47:51.916Z,23.76
2022-10-17T15:49:08.763Z,23.70
2022-10-17T15:50:46.368Z,23.62
2022-10-17T15:52:01.372Z,23.53
2022-10-17T15:53:46.852Z,23.46
2022-10-17T15:54:50.753Z,23.39
2022-10-17T15:55:54.524Z,23.32
2022-10-17T15:57:03.764Z,23.29
2022-10-17T15:58:15.429Z,23.24
2022-10-17T15:59:32.414Z,23.16
2022-10-17T16:00:37.155Z,23.09
2022-10-17T16:01:50.890Z,23.05
2022-10-17T16:02:56.368Z,22.99
2022-10-17T16:05:38.785Z,22.91
2022-10-17T16:06:50.897Z,22.87
2022-10-17T16:07:58.160Z,22.85
2022-10-17T16:09:02.771Z,22.82
2022-10-17T16:10:07.405Z,22.80
2022-10-17T16:11:43.127Z,22.74
2022-10-17T16:12:49.739Z,22.70
2022-10-17T16:13:57.290Z,22.67
2022-10-17T16:15:04.847Z,22.63
2022-10-17T16:16:16.875Z,22.58
2022-10-17T16:17:21.834Z,22.53
2022-10-17T16:18:27.470Z,22.48
2022-10-17T16:19:35.546Z,22.45
2022-10-17T16:20:40.532Z,22.40
2022-10-17T16:21:45.373Z,22.37
2022-10-17T16:22:51.049Z,22.33
2022-10-17T16:23:56.385Z,22.30
2022-10-17T16:25:07.968Z,22.27
2022-10-17T16:26:16.160Z,22.25
2022-10-17T16:27:19.782Z,22.23
2022-10-17T16:28:23.479Z,22.22
2022-10-17T16:29:27.140Z,22.19
2022-10-17T16:30:33.277Z,22.17
2022-10-17T16:31:42.453Z,22.14
2022-10-17T16:32:46.983Z,22.14
2022-10-17T16:33:54.545Z,22.12
2022-10-17T16:35:00.129Z,22.10
2022-10-17T16:36:05.166Z,22.08
2022-10-17T16:37:08.581Z,22.07
2022-10-17T16:38:12.552Z,22.06
2022-10-17T16:39:16.392Z,22.04
2022-10-17T16:40:21.416Z,22.03
2022-10-17T16:41:45.641Z,22.01
2022-10-17T16:43:02.744Z,21.99
2022-10-17T16:44:16.995Z,21.97
2022-10-17T16:45:24.693Z,21.94
2022-10-17T16:46:43.114Z,21.91
2022-10-17T16:47:50.825Z,21.87
2022-10-17T16:48:56.180Z,21.84
2022-10-17T16:49:59.865Z,21.82
2022-10-17T16:51:04.236Z,21.81
2022-10-17T16:52:07.869Z,21.80
2022-10-17T16:53:11.796Z,21.77
2022-10-17T16:54:15.776Z,21.74
2022-10-17T16:55:19.963Z,21.71
2022-10-17T16:56:26.088Z,21.69
2022-10-17T16:57:30.322Z,21.67
2022-10-17T16:58:34.313Z,21.66
2022-10-17T16:59:40.845Z,21.64
2022-10-17T17:00:44.642Z,21.63
2022-10-17T17:01:48.702Z,21.61
2022-10-17T17:03:00.219Z,21.60
2022-10-17T17:04:11.989Z,21.58
2022-10-17T17:05:21.232Z,21.54
2022-10-17T17:06:31.062Z,21.53
2022-10-17T17:07:37.688Z,21.51
2022-10-17T17:08:44.629Z,21.48
2022-10-17T17:09:49.203Z,21.46
2022-10-17T17:10:54.957Z,21.45
2022-10-17T17:11:58.883Z,21.40
2022-10-17T17:13:03.611Z,21.40
2022-10-17T17:14:15.517Z,21.36
2022-10-17T17:15:21.893Z,21.32
2022-10-17T17:16:29.540Z,21.30
2022-10-17T17:17:49.642Z,21.28
2022-10-17T17:19:05.759Z,21.24
2022-10-17T17:20:11.196Z,21.23
2022-10-17T17:21:16.250Z,21.17
2022-10-17T17:22:26.105Z,21.16
2022-10-17T17:23:33.785Z,21.13
2022-10-17T17:24:37.901Z,21.10
2022-10-17T17:25:41.455Z,21.07
2022-10-17T17:26:45.412Z,21.05
2022-10-17T17:27:48.985Z,21.00
2022-10-17T17:28:58.114Z,20.97
2022-10-17T17:30:03.300Z,20.90
2022-10-17T17:31:13.630Z,20.87
2022-10-17T17:32:17.468Z,20.83
2022-10-17T17:33:23.450Z,20.79
2022-10-17T17:34:37.463Z,20.74
2022-10-17T17:35:41.466Z,20.70
2022-10-17T17:36:46.425Z,20.67
2022-10-17T17:37:50.208Z,20.62
2022-10-17T17:39:00.442Z,20.55
2022-10-17T17:40:06.217Z,20.51
2022-10-17T17:41:17.028Z,20.46
2022-10-17T17:42:25.310Z,20.42
2022-10-17T17:43:30.101Z,20.36
2022-10-17T17:44:34.553Z,20.34
2022-10-17T17:45:38.182Z,20.30
2022-10-17T17:46:43.720Z,20.26
2022-10-17T17:47:47.846Z,20.20
2022-10-17T17:48:53.970Z,20.18
2022-10-17T17:49:57.527Z,20.14
2022-10-17T17:51:10.854Z,20.09
2022-10-17T17:52:18.165Z,20.01
2022-10-17T17:53:22.921Z,19.98
2022-10-17T17:54:39.999Z,19.93
2022-10-17T17:55:46.822Z,19.89
2022-10-17T17:57:12.828Z,19.83
2022-10-17T17:58:16.690Z,19.79
2022-10-17T17:59:20.350Z,19.77
2022-10-17T18:00:27.494Z,19.74
2022-10-17T18:01:38.230Z,19.72
2022-10-17T18:02:44.463Z,19.70
2022-10-17T18:03:51.418Z,19.67
2022-10-17T18:04:54.901Z,19.66
2022-10-17T18:05:58.895Z,19.65
2022-10-17T18:07:03.284Z,19.63
2022-10-17T18:08:07.496Z,19.64
2022-10-17T18:09:13.857Z,19.62
2022-10-17T18:10:21.704Z,19.61
2022-10-17T18:11:27.549Z,19.60
2022-10-17T18:12:34.608Z,19.59
2022-10-17T18:13:39.910Z,19.56
2022-10-17T18:14:43.965Z,19.54
2022-10-17T18:15:48.911Z,19.52
2022-10-17T18:16:53.938Z,19.53
2022-10-17T18:17:58.490Z,19.53
2022-10-17T18:19:24.204Z,19.52
2022-10-17T18:20:28.749Z,19.50
2022-10-17T18:21:32.790Z,19.49
2022-10-17T18:22:36.797Z,19.48
2022-10-17T18:23:42.598Z,19.46
2022-10-17T18:24:46.133Z,19.43
2022-10-17T18:26:01.247Z,19.39
2022-10-17T18:27:05.548Z,19.35
2022-10-17T18:28:10.715Z,19.31
2022-10-17T18:29:17.684Z,19.28
2022-10-17T18:30:25.935Z,19.25
2022-10-17T18:31:36.890Z,19.22
2022-10-17T18:32:43.352Z,19.20
2022-10-17T18:33:47.164Z,19.19
2022-10-17T18:34:51.052Z,19.16
2022-10-17T18:35:59.864Z,19.13
2022-10-17T18:37:06.216Z,19.12
2022-10-17T18:38:13.226Z,19.10
2022-10-17T18:39:17.263Z,19.08
2022-10-17T18:40:22.088Z,19.07
2022-10-17T18:41:28.345Z,19.03
2022-10-17T18:42:32.332Z,19.01
2022-10-17T18:43:42.489Z,19.00
2022-10-17T18:48:01.900Z,18.85
2022-10-17T18:49:06.550Z,18.81
2022-10-17T18:50:11.011Z,18.76
2022-10-17T18:51:17.304Z,18.74
2022-10-17T18:52:21.198Z,18.70
2022-10-17T18:53:24.827Z,18.67
2022-10-17T18:54:33.493Z,18.65
2022-10-17T18:55:40.243Z,18.61
2022-10-17T18:56:53.736Z,18.60
2022-10-17T18:57:57.646Z,18.57
2022-10-17T18:59:02.404Z,18.55
2022-10-17T19:00:14.432Z,18.53
2022-10-17T19:01:30.778Z,18.51
2022-10-17T19:02:38.061Z,18.46
2022-10-17T19:03:45.615Z,18.44
2022-10-17T19:06:10.643Z,18.37
2022-10-17T19:07:17.048Z,18.36
2022-10-17T19:08:21.839Z,18.34
2022-10-17T19:09:30.202Z,18.33
2022-10-17T19:10:38.391Z,18.31
2022-10-17T19:11:44.593Z,18.30
2022-10-17T19:12:59.166Z,18.29
2022-10-17T19:14:11.449Z,18.28
2022-10-17T19:15:16.625Z,18.25
2022-10-17T19:19:56.988Z,18.13
2022-10-17T19:21:29.450Z,18.09
2022-10-17T19:24:44.159Z,18.01
2022-10-17T19:28:38.303Z,17.87
2022-10-17T19:29:58.603Z,17.84
2022-10-17T19:31:46.860Z,17.81
2022-10-17T19:33:09.539Z,17.75
2022-10-17T19:34:17.977Z,17.75
2022-10-17T19:35:30.044Z,17.70
2022-10-17T19:36:41.428Z,17.69
2022-10-17T19:37:58.645Z,17.65
2022-10-17T19:39:06.932Z,17.64
2022-10-17T19:40:15.350Z,17.61
2022-10-17T19:41:31.540Z,17.60
2022-10-17T19:43:00.103Z,17.56
2022-10-17T19:44:28.485Z,17.55
2022-10-17T19:45:37.176Z,17.52
2022-10-17T19:46:53.071Z,17.51
2022-10-17T19:48:09.049Z,17.49
2022-10-17T19:49:18.181Z,17.46
2022-10-17T19:50:27.882Z,17.43
2022-10-17T19:51:33.277Z,17.44
2022-10-17T19:52:38.879Z,17.42
2022-10-17T19:53:58.545Z,17.41
2022-10-17T19:55:05.819Z,17.38
2022-10-17T19:56:11.690Z,17.36
2022-10-17T19:57:29.653Z,17.34
2022-10-17T19:58:54.368Z,17.32
2022-10-17T20:00:00.666Z,17.29
2022-10-17T20:03:08.478Z,17.19
2022-10-17T20:04:16.191Z,17.17
2022-10-17T20:05:25.944Z,17.16
2022-10-17T20:06:37.470Z,17.14
2022-10-17T20:07:41.640Z,17.13
2022-10-17T20:08:45.803Z,17.12
2022-10-17T20:09:58.373Z,17.10
2022-10-17T20:11:16.153Z,17.06
2022-10-17T20:12:20.408Z,17.07
2022-10-17T20:13:25.393Z,17.06
2022-10-17T20:14:29.221Z,17.05
2022-10-17T20:15:32.962Z,17.01
2022-10-17T20:16:36.978Z,17.00
2022-10-17T20:17:40.994Z,17.00
2022-10-17T20:18:45.070Z,16.99
2022-10-17T20:19:55.199Z,16.97
2022-10-17T20:21:09.379Z,16.97
2022-10-17T20:22:13.222Z,16.98
2022-10-17T20:23:19.950Z,16.95
2022-10-17T20:24:23.516Z,16.93
2022-10-17T20:25:27.519Z,16.93
2022-10-17T20:26:39.564Z,16.93
2022-10-17T20:27:44.852Z,16.90
2022-10-17T20:28:49.635Z,16.87
2022-10-17T20:29:53.463Z,16.86
2022-10-17T20:30:57.571Z,16.79
2022-10-17T20:32:01.106Z,16.79
2022-10-17T20:33:04.700Z,16.79
2022-10-17T20:34:15.008Z,16.78
2022-10-17T20:35:25.835Z,16.76
2022-10-17T20:36:37.792Z,16.77
2022-10-17T20:37:44.354Z,16.75
2022-10-17T20:38:48.425Z,16.76
2022-10-17T20:40:10.702Z,16.75
2022-10-17T20:41:16.486Z,16.74
2022-10-17T20:42:22.308Z,16.73
2022-10-17T20:43:27.155Z,16.69
2022-10-17T20:44:32.350Z,16.66
2022-10-17T20:45:50.957Z,16.68
2022-10-17T20:47:02.171Z,16.67
2022-10-17T20:48:10.605Z,16.65
2022-10-17T20:49:18.547Z,16.64
2022-10-17T20:50:23.330Z,16.63
2022-10-17T20:51:28.231Z,16.59
2022-10-17T20:52:32.644Z,16.59
2022-10-17T20:53:38.172Z,16.58
2022-10-17T20:54:42.002Z,16.55
2022-10-17T20:55:45.869Z,16.53
2022-10-17T20:56:50.181Z,16.49
2022-10-17T20:57:55.929Z,16.47
2022-10-17T20:59:11.350Z,16.48
2022-10-17T21:00:16.462Z,16.47
2022-10-17T21:01:21.491Z,16.45
2022-10-17T21:02:26.387Z,16.48
2022-10-17T21:03:42.300Z,16.44
2022-10-17T21:04:50.778Z,16.42
2022-10-17T21:05:54.533Z,16.41
2022-10-17T21:06:59.821Z,16.40
2022-10-17T21:08:03.924Z,16.38
2022-10-17T21:09:10.081Z,16.38
2022-10-17T21:10:35.490Z,16.37
2022-10-17T21:11:41.715Z,16.32
2022-10-17T21:12:54.021Z,16.31
2022-10-17T21:14:04.991Z,16.32
2022-10-17T21:15:09.423Z,16.30
2022-10-17T21:16:22.694Z,16.28
2022-10-17T21:17:29.465Z,16.26
2022-10-17T21:18:33.547Z,16.27
2022-10-17T21:19:37.787Z,16.27
2022-10-17T21:20:41.842Z,16.26
2022-10-17T21:21:46.929Z,16.26
2022-10-17T21:22:51.997Z,16.24
2022-10-17T21:24:01.061Z,16.21
2022-10-17T21:25:06.298Z,16.19
2022-10-17T21:26:13.247Z,16.17
2022-10-17T21:27:19.755Z,16.16
2022-10-17T21:28:32.048Z,16.16
2022-10-17T21:29:36.199Z,16.16
2022-10-17T21:30:40.338Z,16.14
2022-10-17T21:31:45.979Z,16.15
2022-10-17T21:32:55.439Z,16.11
2022-10-17T21:34:05.653Z,16.10
2022-10-17T21:35:12.461Z,16.07
2022-10-17T21:36:18.976Z,16.04
2022-10-17T21:37:26.041Z,16.01
2022-10-17T21:38:30.057Z,15.99
2022-10-17T21:39:33.647Z,15.97
2022-10-17T21:40:37.238Z,15.96
2022-10-17T21:41:42.059Z,15.95
2022-10-17T21:42:45.728Z,15.92
2022-10-17T21:43:55.275Z,15.91
2022-10-17T21:44:59.106Z,15.88
2022-10-17T21:46:10.512Z,15.88
2022-10-17T21:47:15.623Z,15.84
2022-10-17T21:48:19.823Z,15.81
2022-10-17T21:49:27.473Z,15.79
2022-10-17T21:50:32.755Z,15.77
2022-10-17T21:51:39.554Z,15.74
2022-10-17T21:52:43.851Z,15.71
2022-10-17T21:53:48.221Z,15.71
2022-10-17T21:54:52.555Z,15.72
2022-10-17T21:56:01.719Z,15.69
2022-10-17T21:57:06.519Z,15.68
2022-10-17T21:58:10.291Z,15.65
2022-10-17T21:59:14.565Z,15.64
2022-10-17T22:00:21.763Z,15.66
2022-10-17T22:01:38.846Z,15.62
2022-10-17T22:02:43.225Z,15.60
2022-10-17T22:03:51.079Z,15.59
2022-10-17T22:04:54.712Z,15.59
2022-10-17T22:06:07.097Z,15.58
2022-10-17T22:07:26.545Z,15.56
2022-10-17T22:08:31.799Z,15.54
2022-10-17T22:09:35.992Z,15.52
2022-10-17T22:10:41.630Z,15.53
2022-10-17T22:11:52.291Z,15.51
2022-10-17T22:12:55.812Z,15.52
2022-10-17T22:14:07.162Z,15.52
2022-10-17T22:15:11.188Z,15.50
2022-10-17T22:16:19.156Z,15.47
2022-10-17T22:17:22.839Z,15.47
2022-10-17T22:18:26.888Z,15.45
2022-10-17T22:19:30.697Z,15.43
2022-10-17T22:20:35.612Z,15.39
2022-10-17T22:21:39.878Z,15.38
2022-10-17T22:22:44.190Z,15.39
2022-10-17T22:23:56.723Z,15.37
2022-10-17T22:25:00.222Z,15.34
2022-10-17T22:26:04.725Z,15.33
2022-10-17T22:27:10.389Z,15.32
2022-10-17T22:28:14.077Z,15.26
2022-10-17T22:29:18.024Z,15.22
2022-10-17T22:30:21.761Z,15.20
2022-10-17T22:31:26.259Z,15.15
2022-10-17T22:32:30.208Z,15.11
2022-10-17T22:33:39.412Z,15.11
2022-10-17T22:34:44.482Z,15.12
2022-10-17T22:35:50.622Z,15.11
2022-10-17T22:36:54.221Z,15.09
2022-10-17T22:37:58.476Z,15.10
2022-10-17T22:39:03.789Z,15.11
2022-10-17T22:40:08.812Z,15.10
2022-10-17T22:41:12.382Z,15.11
2022-10-17T22:42:18.604Z,15.09
2022-10-17T22:43:23.105Z,15.08
2022-10-17T22:44:30.058Z,15.07
2022-10-17T22:45:34.233Z,15.04
2022-10-17T22:46:38.371Z,15.05
2022-10-17T22:47:42.470Z,15.02
2022-10-17T22:48:46.546Z,15.03
2022-10-17T22:49:51.052Z,15.05
2022-10-17T22:51:00.824Z,15.04
2022-10-17T22:52:05.909Z,15.04
2022-10-17T22:53:12.786Z,15.00
2022-10-17T22:54:17.183Z,15.01
2022-10-17T22:55:21.572Z,14.99
2022-10-17T22:56:26.202Z,14.99
2022-10-17T22:57:30.471Z,14.99
2022-10-17T22:58:36.693Z,15.00
2022-10-17T22:59:41.311Z,15.00
2022-10-17T23:00:45.075Z,15.00
2022-10-17T23:01:48.913Z,14.99
2022-10-17T23:02:55.943Z,14.99
2022-10-17T23:03:59.590Z,14.98
2022-10-17T23:05:04.515Z,14.97
2022-10-17T23:06:12.311Z,14.95
2022-10-17T23:07:16.120Z,14.93
2022-10-17T23:08:20.531Z,14.92
2022-10-17T23:10:35.412Z,14.88
2022-10-17T23:11:39.180Z,14.85
2022-10-17T23:12:43.572Z,14.83
2022-10-17T23:13:47.233Z,14.83
2022-10-17T23:14:52.183Z,14.81
2022-10-17T23:15:58.151Z,14.81
2022-10-17T23:17:02.200Z,14.79
2022-10-17T23:18:09.876Z,14.80
2022-10-17T23:19:13.647Z,14.76
2022-10-17T23:20:18.313Z,14.71
2022-10-17T23:21:22.995Z,14.71
2022-10-17T23:22:30.063Z,14.71
2022-10-17T23:23:34.744Z,14.69
2022-10-17T23:24:38.750Z,14.66
2022-10-17T23:25:43.881Z,14.64
2022-10-17T23:26:48.046Z,14.62
2022-10-17T23:27:52.077Z,14.61
2022-10-17T23:28:55.757Z,14.59
2022-10-17T23:29:59.614Z,14.60
2022-10-17T23:31:21.608Z,14.56
2022-10-17T23:32:28.242Z,14.53
2022-10-17T23:33:32.531Z,14.54
2022-10-17T23:34:36.213Z,14.53
2022-10-17T23:35:40.864Z,14.54
2022-10-17T23:36:44.870Z,14.52
2022-10-17T23:37:48.498Z,14.51
2022-10-17T23:38:54.992Z,14.52
2022-10-17T23:40:05.962Z,14.50
2022-10-17T23:41:11.201Z,14.49
2022-10-17T23:42:15.768Z,14.45
2022-10-17T23:43:20.151Z,14.46
2022-10-17T23:44:24.745Z,14.43
2022-10-17T23:45:28.582Z,14.43
2022-10-17T23:46:32.663Z,14.39
2022-10-17T23:47:44.128Z,14.37
2022-10-17T23:48:47.841Z,14.37
2022-10-17T23:49:52.340Z,14.35
2022-10-17T23:50:59.176Z,14.35
2022-10-17T23:52:02.767Z,14.35
2022-10-17T23:53:06.868Z,14.32
2022-10-17T23:54:10.630Z,14.33
2022-10-17T23:55:14.600Z,14.30
2022-10-17T23:56:19.340Z,14.30
2022-10-17T23:57:23.943Z,14.29
2022-10-17T23:58:29.193Z,14.27
2022-10-17T23:59:33.583Z,14.27
